Albion, NE

3:50 AM CDT on August 05, 2015 (GMT -0500)
Albion Municipal | | Change Station
CLOSE
Current Station
Airport
Location: Albion,
Elevation: 1804 ft
Nearby Weather Stations

Elev 1804 ft 41.73 °N, 98.06 °W | Updated 15 minutes ago

Overcast
Overcast
67 °F
Feels Like 67 °F
N
5
Wind Variable Wind from ESE

Today
High -- | Low -- °F
--% Chance of Precip.
Yesterday
High -- | Low -- °F
Precip. -- in
6:30 AM 8:45 PM
Waning Gibbous, 69% visible
Pressure 30.00 in
Visibility 1.8 miles
Clouds Overcast 300 ft
Dew Point 65 °F
Humidity 93%
Rainfall 0.00 in
Snow Depth Not available.
UV 0 out of 12
Pollen 5.40 out of 12
Air Quality Not available.
Flu Activity Not available.
METAR KBVN 050835Z AUTO 11004KT 1 3/4SM BR OVC003 19/18 A3000 RMK AO2 T01930181

More Conditions Fewer Conditions

Pressure 30.00 in
Visibility 1.8 miles
Clouds Overcast 300 ft
Dew Point 65 °F
Humidity 93%
Rainfall 0.00 in
Snow Depth Not available.
UV 0 out of 12
Pollen 5.40 out of 12
Air Quality Not available.
Flu Activity Not available.
METAR KBVN 050835Z AUTO 11004KT 1 3/4SM BR OVC003 19/18 A3000 RMK AO2 T01930181

More Conditions Fewer Conditions

10-Day Weather Forecast

×

Almanac

Astronomy

Aug. 05, 2015 Rise Set
Actual Time
Civil Twilight
Nautical Twilight
Astronomical Twilight
Moon
Length of Visible Light
Length of Day
Tomorrow will be .
, % of the Moon is Illuminated

Today's Extremes

State Highs State Lows

Community

WunderPhotos

Upload Photos

1,844,105 photos uploaded!

WunderBlogs® & News

Nearby

Air Quality

  Air Quality AQ Index Pollutant
Not available.

Snow Depth

Station Depth Elevation

Earthquake Activity

City Distance Mag. Time & Date
Minimum magnitude displayed is 2.5.

Coastal Water Temperatures

Place Temperature

Stations

Nearby Weather Stations

Station Location Temp. Windchill Dew Point Humidity Wind Precip. Elev Updated Type